createdAt,value
2022-12-25T00:01:32.356Z,5.75
2022-12-25T00:03:59.536Z,5.69
2022-12-25T00:06:27.263Z,5.63
2022-12-25T00:08:54.080Z,5.57
2022-12-25T00:11:21.306Z,5.55
2022-12-25T00:13:49.092Z,5.53
2022-12-25T00:16:19.983Z,5.49
2022-12-25T00:18:47.893Z,5.48
2022-12-25T00:21:16.286Z,5.47
2022-12-25T00:23:43.438Z,5.47
2022-12-25T00:26:13.519Z,5.41
2022-12-25T00:28:40.695Z,5.40
2022-12-25T00:31:12.421Z,5.37
2022-12-25T00:33:41.704Z,5.34
2022-12-25T00:36:10.171Z,5.33
2022-12-25T00:38:39.120Z,5.26
2022-12-25T00:41:18.890Z,5.24
2022-12-25T00:43:45.716Z,5.22
2022-12-25T00:46:13.897Z,5.21
2022-12-25T00:48:42.081Z,5.14
2022-12-25T00:51:12.368Z,5.08
2022-12-25T00:53:39.988Z,5.08
2022-12-25T00:56:08.035Z,5.05
2022-12-25T00:58:36.764Z,5.01
2022-12-25T01:01:04.470Z,4.98
2022-12-25T01:03:31.689Z,4.95
2022-12-25T01:06:01.077Z,4.88
2022-12-25T01:08:30.504Z,4.88
2022-12-25T01:11:02.227Z,4.84
2022-12-25T01:13:32.959Z,4.77
2022-12-25T01:15:59.957Z,4.76
2022-12-25T01:18:27.123Z,4.77
2022-12-25T01:20:54.049Z,4.78
2022-12-25T01:23:20.941Z,4.74
2022-12-25T01:25:47.948Z,4.77
2022-12-25T01:28:16.690Z,4.75
2022-12-25T01:30:50.898Z,4.74
2022-12-25T01:33:18.467Z,4.69
2022-12-25T01:35:48.301Z,4.65
2022-12-25T01:38:15.457Z,4.69
2022-12-25T01:40:42.613Z,4.72
2022-12-25T01:43:26.901Z,4.72
2022-12-25T01:45:54.270Z,4.74
2022-12-25T01:48:29.374Z,4.82
2022-12-25T01:51:02.097Z,4.76
2022-12-25T01:53:30.056Z,4.74
2022-12-25T01:56:07.337Z,4.73
2022-12-25T01:58:35.081Z,4.76
2022-12-25T02:01:02.230Z,4.70
2022-12-25T02:03:29.388Z,4.69
2022-12-25T02:05:57.179Z,4.63
2022-12-25T02:08:24.528Z,4.60
2022-12-25T02:10:51.507Z,4.60
2022-12-25T02:13:20.649Z,4.58
2022-12-25T02:16:08.682Z,4.60
2022-12-25T02:18:52.101Z,4.55
2022-12-25T02:21:22.009Z,4.54
2022-12-25T02:23:57.918Z,4.54
2022-12-25T02:27:03.231Z,4.57
2022-12-25T02:29:57.717Z,4.48
2022-12-25T02:32:32.861Z,4.47
2022-12-25T02:35:13.157Z,4.41
2022-12-25T02:38:03.945Z,4.43
2022-12-25T02:40:44.770Z,4.45
2022-12-25T02:43:41.947Z,4.47
2022-12-25T02:46:34.753Z,4.43
2022-12-25T02:49:24.496Z,4.50
2022-12-25T02:52:16.375Z,4.45
2022-12-25T02:55:12.126Z,4.42
2022-12-25T02:58:03.573Z,4.43
2022-12-25T03:00:54.109Z,4.37
2022-12-25T03:03:43.427Z,4.34
2022-12-25T03:06:47.217Z,4.34
2022-12-25T03:09:40.005Z,4.30
2022-12-25T03:12:29.748Z,4.28
2022-12-25T03:15:15.058Z,4.24
2022-12-25T03:17:42.545Z,4.20
2022-12-25T03:20:28.786Z,4.17
2022-12-25T03:23:15.421Z,4.19
2022-12-25T03:26:00.712Z,4.27
2022-12-25T03:28:27.647Z,4.23
2022-12-25T03:31:12.799Z,4.25
2022-12-25T03:34:30.531Z,4.25
2022-12-25T03:37:24.634Z,4.22
2022-12-25T03:40:29.346Z,4.21
2022-12-25T03:43:31.507Z,4.18
2022-12-25T03:46:22.252Z,4.21
2022-12-25T03:49:14.681Z,4.17
2022-12-25T03:52:02.038Z,4.19
2022-12-25T03:54:52.244Z,4.20
2022-12-25T03:57:37.449Z,4.21
2022-12-25T04:00:23.318Z,4.25
2022-12-25T04:03:08.919Z,4.27
2022-12-25T04:05:54.306Z,4.28
2022-12-25T04:08:39.767Z,4.22
2022-12-25T04:11:25.122Z,4.21
2022-12-25T04:14:10.385Z,4.22
2022-12-25T04:16:55.779Z,4.32
2022-12-25T04:19:40.847Z,4.32
2022-12-25T04:22:26.196Z,4.33
2022-12-25T04:25:11.590Z,4.34
2022-12-25T04:27:56.631Z,4.34
2022-12-25T04:30:41.983Z,4.37
2022-12-25T04:33:27.345Z,4.42
2022-12-25T04:36:15.298Z,4.47
2022-12-25T04:38:42.945Z,4.44
2022-12-25T04:41:12.383Z,4.50
2022-12-25T04:43:39.122Z,4.55
2022-12-25T04:46:06.412Z,4.60
2022-12-25T04:48:35.048Z,4.67
2022-12-25T04:51:20.085Z,4.77
2022-12-25T04:53:49.029Z,4.76
2022-12-25T04:56:16.271Z,4.80
2022-12-25T04:58:43.315Z,4.81
2022-12-25T05:01:10.909Z,4.87
2022-12-25T05:03:38.751Z,4.93
2022-12-25T05:06:06.833Z,4.93
2022-12-25T05:08:36.044Z,4.95
2022-12-25T05:11:13.131Z,5.00
2022-12-25T05:13:40.787Z,5.03
2022-12-25T05:16:09.385Z,5.04
2022-12-25T05:18:36.423Z,5.03
2022-12-25T05:21:04.147Z,5.12
2022-12-25T05:23:31.675Z,5.14
2022-12-25T05:25:58.756Z,5.12
2022-12-25T05:28:25.506Z,5.18
2022-12-25T05:30:52.289Z,5.14
2022-12-25T05:33:19.195Z,5.14
2022-12-25T05:35:45.997Z,5.14
2022-12-25T05:38:12.753Z,5.14
2022-12-25T05:40:41.114Z,5.17
2022-12-25T05:43:08.112Z,5.10
2022-12-25T05:45:35.471Z,5.13
2022-12-25T05:48:02.273Z,5.15
2022-12-25T05:50:29.220Z,5.26
2022-12-25T05:52:56.415Z,5.19
2022-12-25T05:55:23.807Z,5.20
2022-12-25T05:57:50.662Z,5.19
2022-12-25T06:00:18.040Z,5.20
2022-12-25T06:02:45.457Z,5.23
2022-12-25T06:05:12.775Z,5.23
2022-12-25T06:07:39.495Z,5.23
2022-12-25T06:10:07.459Z,5.27
2022-12-25T06:12:34.682Z,5.20
2022-12-25T06:15:01.957Z,5.20
2022-12-25T06:17:31.357Z,5.24
2022-12-25T06:19:58.534Z,5.27
2022-12-25T06:22:30.733Z,5.26
2022-12-25T06:24:59.103Z,5.26
2022-12-25T06:27:26.632Z,5.23
2022-12-25T06:29:53.545Z,5.21
2022-12-25T06:32:20.413Z,5.23
2022-12-25T06:34:51.951Z,5.25
2022-12-25T06:37:19.462Z,5.27
2022-12-25T06:39:47.532Z,5.26
2022-12-25T06:42:14.542Z,5.24
2022-12-25T06:44:42.096Z,5.33
2022-12-25T06:47:09.169Z,5.29
2022-12-25T06:49:36.147Z,5.27
2022-12-25T06:52:06.675Z,5.27
2022-12-25T06:54:38.179Z,5.34
2022-12-25T06:59:55.179Z,5.36
2022-12-25T07:02:23.929Z,5.30
2022-12-25T07:04:51.666Z,5.29
2022-12-25T07:07:18.408Z,5.29
2022-12-25T07:09:45.060Z,5.34
2022-12-25T07:12:11.781Z,5.37
2022-12-25T07:14:38.532Z,5.40
2022-12-25T07:17:05.613Z,5.34
2022-12-25T07:19:32.435Z,5.38
2022-12-25T07:21:59.228Z,5.36
2022-12-25T07:24:26.287Z,5.36
2022-12-25T07:26:53.062Z,5.39
2022-12-25T07:29:19.859Z,5.41
2022-12-25T07:31:47.164Z,5.41
2022-12-25T07:34:14.809Z,5.51
2022-12-25T07:36:41.769Z,5.43
2022-12-25T07:39:11.243Z,5.43
2022-12-25T07:41:38.110Z,5.56
2022-12-25T07:44:05.444Z,5.50
2022-12-25T07:46:32.184Z,5.53
2022-12-25T07:48:58.923Z,5.55
2022-12-25T07:51:25.556Z,5.56
2022-12-25T07:53:52.958Z,5.59
2022-12-25T07:56:20.461Z,5.69
2022-12-25T07:58:49.030Z,5.64
2022-12-25T08:01:21.439Z,5.63
2022-12-25T08:04:00.408Z,5.65
2022-12-25T08:06:31.234Z,5.65
2022-12-25T08:09:02.323Z,5.71
2022-12-25T08:11:29.117Z,5.77
2022-12-25T08:13:55.795Z,5.79
2022-12-25T08:16:22.908Z,5.78
2022-12-25T08:24:16.189Z,5.86
2022-12-25T08:26:58.682Z,5.85
2022-12-25T08:29:30.045Z,5.87
2022-12-25T08:32:01.822Z,5.88
2022-12-25T08:45:23.400Z,6.04
2022-12-25T08:53:39.837Z,6.25
2022-12-25T08:56:07.675Z,6.18
2022-12-25T08:58:38.763Z,6.17
2022-12-25T09:01:40.720Z,6.19
2022-12-25T09:04:10.949Z,6.20
2022-12-25T09:06:46.659Z,6.21
2022-12-25T09:09:13.539Z,6.23
2022-12-25T09:11:40.276Z,6.24
2022-12-25T09:14:07.208Z,6.33
2022-12-25T09:16:33.952Z,6.35
2022-12-25T09:19:04.309Z,6.36
2022-12-25T09:21:31.023Z,6.37
2022-12-25T09:23:57.756Z,6.38
2022-12-25T09:26:24.341Z,6.46
2022-12-25T09:28:52.525Z,6.46
2022-12-25T09:31:21.281Z,6.53
2022-12-25T09:33:48.739Z,6.54
2022-12-25T09:36:15.802Z,6.57
2022-12-25T09:38:43.131Z,6.64
2022-12-25T09:41:31.061Z,6.69
2022-12-25T09:44:05.958Z,6.70
2022-12-25T09:46:41.108Z,6.72
2022-12-25T09:49:20.114Z,6.68
2022-12-25T09:51:53.777Z,6.76
2022-12-25T09:54:36.964Z,6.77
2022-12-25T09:57:04.115Z,6.69
2022-12-25T09:59:31.200Z,6.72
2022-12-25T10:02:19.736Z,6.89
2022-12-25T10:05:15.867Z,6.86
2022-12-25T10:10:51.058Z,6.81
2022-12-25T10:13:45.003Z,6.90
2022-12-25T10:16:27.022Z,6.83
2022-12-25T10:19:28.489Z,6.89
2022-12-25T10:22:01.808Z,6.90
2022-12-25T10:24:37.128Z,6.89
2022-12-25T10:27:08.713Z,6.88
2022-12-25T10:29:43.066Z,6.90
2022-12-25T10:32:10.645Z,6.98
2022-12-25T10:34:42.501Z,6.98
2022-12-25T10:37:15.063Z,6.98
2022-12-25T10:39:46.622Z,6.99
2022-12-25T10:42:42.569Z,7.03
2022-12-25T10:45:12.539Z,7.08
2022-12-25T10:47:43.064Z,7.07
2022-12-25T10:50:21.311Z,7.06
2022-12-25T10:53:00.754Z,7.08
2022-12-25T10:55:29.594Z,7.19
2022-12-25T10:58:00.781Z,7.17
2022-12-25T11:00:33.240Z,7.21
2022-12-25T11:03:01.286Z,7.21
2022-12-25T11:05:33.788Z,7.27
2022-12-25T11:08:03.321Z,7.26
2022-12-25T11:10:44.506Z,7.30
2022-12-25T11:13:29.871Z,7.27
2022-12-25T11:16:14.826Z,7.22
2022-12-25T11:18:52.015Z,7.26
2022-12-25T11:21:40.932Z,7.31
2022-12-25T11:24:21.914Z,7.32
2022-12-25T11:26:53.619Z,7.32
2022-12-25T11:30:00.692Z,7.39
2022-12-25T11:32:38.260Z,7.52
2022-12-25T11:35:14.242Z,7.40
2022-12-25T11:38:01.106Z,7.45
2022-12-25T11:43:47.072Z,7.44
2022-12-25T11:46:24.296Z,7.43
2022-12-25T11:49:00.433Z,7.50
2022-12-25T11:51:33.425Z,7.48
2022-12-25T11:54:24.017Z,7.52
2022-12-25T11:56:51.265Z,7.57
2022-12-25T11:59:27.489Z,7.58
2022-12-25T12:01:54.409Z,7.63
2022-12-25T12:04:40.274Z,7.64
2022-12-25T12:07:19.404Z,7.57
2022-12-25T12:09:57.625Z,7.57
2022-12-25T12:13:15.227Z,7.55
2022-12-25T12:21:36.365Z,7.70
2022-12-25T12:24:16.767Z,7.71
2022-12-25T12:26:46.477Z,7.65
2022-12-25T12:29:48.393Z,7.77
2022-12-25T13:23:39.594Z,7.88
2022-12-25T13:34:17.627Z,7.98
2022-12-25T13:36:44.669Z,7.94
2022-12-25T13:44:52.161Z,7.90
2022-12-25T13:47:21.171Z,7.96
2022-12-25T13:49:49.583Z,7.92
2022-12-25T13:52:21.442Z,7.93
2022-12-25T13:55:14.871Z,7.90
2022-12-25T13:57:49.306Z,7.92
2022-12-25T14:00:22.489Z,7.91
2022-12-25T14:02:53.594Z,7.92
2022-12-25T14:05:28.129Z,7.96
2022-12-25T14:07:57.359Z,7.98
2022-12-25T14:10:27.725Z,8.00
2022-12-25T14:12:58.195Z,8.09
2022-12-25T14:15:25.875Z,8.05
2022-12-25T14:17:53.669Z,8.04
2022-12-25T14:20:38.291Z,8.07
2022-12-25T14:23:06.154Z,8.04
2022-12-25T14:25:43.248Z,8.12
2022-12-25T14:28:23.995Z,8.07
2022-12-25T14:30:54.686Z,8.09
2022-12-25T14:33:24.657Z,8.01
2022-12-25T14:35:52.770Z,8.02
2022-12-25T14:38:27.599Z,7.99
2022-12-25T14:41:05.563Z,8.00
2022-12-25T14:43:37.695Z,7.97
2022-12-25T14:46:09.293Z,7.88
2022-12-25T14:48:38.661Z,7.88
2022-12-25T14:51:31.678Z,7.90
2022-12-25T14:54:02.340Z,7.87
2022-12-25T14:56:33.323Z,7.92
2022-12-25T14:59:02.613Z,7.86
2022-12-25T15:01:34.326Z,7.86
2022-12-25T15:04:20.931Z,7.85
2022-12-25T15:07:09.666Z,7.81
2022-12-25T15:09:37.942Z,7.77
2022-12-25T15:12:07.297Z,7.79
2022-12-25T15:14:40.869Z,7.85
2022-12-25T15:17:12.420Z,7.78
2022-12-25T15:19:39.682Z,7.78
2022-12-25T15:22:06.732Z,7.77
2022-12-25T15:24:33.699Z,7.77
2022-12-25T15:27:01.046Z,7.73
2022-12-25T15:30:09.314Z,7.76
2022-12-25T15:32:24.632Z,7.78
2022-12-25T15:34:53.289Z,7.84
2022-12-25T15:37:20.719Z,7.71
2022-12-25T15:39:47.803Z,7.66
2022-12-25T15:42:18.343Z,7.68
2022-12-25T15:44:46.152Z,7.63
2022-12-25T15:47:18.242Z,7.67
2022-12-25T15:49:48.760Z,7.64
2022-12-25T15:52:21.371Z,7.58
2022-12-25T15:54:57.567Z,7.56
2022-12-25T15:57:29.386Z,7.53
2022-12-25T15:59:56.466Z,7.52
2022-12-25T16:02:23.494Z,7.47
2022-12-25T16:04:51.375Z,7.55
2022-12-25T16:07:29.682Z,7.53
2022-12-25T16:09:58.672Z,7.61
2022-12-25T16:12:26.008Z,7.56
2022-12-25T16:14:53.235Z,7.54
2022-12-25T16:17:20.445Z,7.51
2022-12-25T16:19:47.529Z,7.57
2022-12-25T16:22:26.004Z,7.50
2022-12-25T16:24:54.086Z,7.57
2022-12-25T16:27:43.498Z,7.56
2022-12-25T16:30:15.611Z,7.50
2022-12-25T16:32:44.202Z,7.56
2022-12-25T16:35:24.360Z,7.52
2022-12-25T16:37:52.525Z,7.45
2022-12-25T16:40:28.484Z,7.43
2022-12-25T16:45:53.819Z,7.40
2022-12-25T16:48:33.736Z,7.41
2022-12-25T16:51:03.506Z,7.38
2022-12-25T16:53:35.633Z,7.44
2022-12-25T16:56:25.061Z,7.39
2022-12-25T16:59:04.939Z,7.40
2022-12-25T17:01:52.929Z,7.34
2022-12-25T17:04:26.117Z,7.42
2022-12-25T17:06:53.742Z,7.41
2022-12-25T17:09:25.430Z,7.37
2022-12-25T17:11:56.871Z,7.48
2022-12-25T17:15:04.139Z,7.44
2022-12-25T17:17:59.608Z,7.39
2022-12-25T17:20:29.204Z,7.36
2022-12-25T17:22:56.237Z,7.35
2022-12-25T17:25:23.059Z,7.43
2022-12-25T17:27:50.822Z,7.36
2022-12-25T17:30:17.554Z,7.26
2022-12-25T17:32:44.217Z,7.24
2022-12-25T17:35:11.048Z,7.27
2022-12-25T17:37:37.724Z,7.34
2022-12-25T17:40:04.924Z,7.28
2022-12-25T17:42:31.791Z,7.31
2022-12-25T17:44:58.651Z,7.28
2022-12-25T17:47:26.402Z,7.26
2022-12-25T17:49:53.262Z,7.31
2022-12-25T17:52:20.092Z,7.31
2022-12-25T17:54:46.814Z,7.33
2022-12-25T17:57:14.284Z,7.26
2022-12-25T17:59:42.014Z,7.27
2022-12-25T18:02:09.233Z,7.20
2022-12-25T18:04:35.994Z,7.22
2022-12-25T18:07:03.536Z,7.19
2022-12-25T18:09:30.302Z,7.23
2022-12-25T18:11:56.983Z,7.23
2022-12-25T18:14:23.719Z,7.26
2022-12-25T18:16:50.625Z,7.25
2022-12-25T18:21:59.025Z,7.17
2022-12-25T18:24:25.727Z,7.20
2022-12-25T18:26:52.535Z,7.19
2022-12-25T18:29:19.389Z,7.13
2022-12-25T18:31:48.211Z,7.09
2022-12-25T18:34:17.164Z,7.12
2022-12-25T18:36:44.897Z,7.08
2022-12-25T18:39:13.383Z,7.15
2022-12-25T18:42:00.108Z,7.13
2022-12-25T18:44:26.835Z,7.18
2022-12-25T18:46:54.078Z,7.12
2022-12-25T18:49:21.343Z,7.12
2022-12-25T18:51:49.300Z,7.15
2022-12-25T18:54:16.023Z,7.15
2022-12-25T18:56:42.765Z,7.14
2022-12-25T18:59:09.800Z,7.14
2022-12-25T19:01:36.511Z,7.14
2022-12-25T19:04:05.579Z,7.15
2022-12-25T19:06:33.544Z,7.13
2022-12-25T19:09:00.922Z,7.11
2022-12-25T19:11:30.910Z,7.10
2022-12-25T19:13:57.737Z,7.12
2022-12-25T19:16:24.758Z,7.08
2022-12-25T19:18:51.534Z,7.12
2022-12-25T19:21:18.378Z,7.10
2022-12-25T19:23:45.369Z,7.09
2022-12-25T19:26:12.377Z,7.15
2022-12-25T19:28:39.691Z,7.15
2022-12-25T19:31:09.318Z,7.16
2022-12-25T19:33:38.815Z,7.15
2022-12-25T19:36:12.020Z,7.19
2022-12-25T19:38:39.151Z,7.25
2022-12-25T19:41:10.738Z,7.22
2022-12-25T19:43:39.766Z,7.20
2022-12-25T19:46:07.938Z,7.18
2022-12-25T19:48:36.091Z,7.16
2022-12-25T19:51:15.050Z,7.16
2022-12-25T19:53:41.956Z,7.15
2022-12-25T19:56:12.052Z,7.14
2022-12-25T19:58:44.347Z,7.13
2022-12-25T20:01:25.165Z,7.17
2022-12-25T20:03:53.181Z,7.18
2022-12-25T20:06:32.398Z,7.17
2022-12-25T20:12:59.915Z,7.18
2022-12-25T20:19:26.963Z,7.24
2022-12-25T20:55:05.872Z,7.32
2022-12-25T20:57:32.692Z,7.31
2022-12-25T20:59:59.675Z,7.36
2022-12-25T21:02:34.810Z,7.34
2022-12-25T21:05:04.696Z,7.33
2022-12-25T21:07:31.689Z,7.34
2022-12-25T21:09:59.556Z,7.34
2022-12-25T21:12:26.667Z,7.35
2022-12-25T21:14:54.233Z,7.33
2022-12-25T21:17:21.178Z,7.33
2022-12-25T21:19:48.064Z,7.35
2022-12-25T21:22:15.046Z,7.37
2022-12-25T21:24:41.979Z,7.41
2022-12-25T21:27:08.959Z,7.48
2022-12-25T21:29:35.878Z,7.56
2022-12-25T21:32:21.278Z,7.51
2022-12-25T21:34:48.150Z,7.44
2022-12-25T21:37:14.977Z,7.45
2022-12-25T21:39:42.214Z,7.47
2022-12-25T21:42:09.661Z,7.44
2022-12-25T21:44:36.621Z,7.46
2022-12-25T21:47:03.424Z,7.52
2022-12-25T21:49:48.591Z,7.53
2022-12-25T21:52:15.435Z,7.59
2022-12-25T21:54:42.355Z,7.58
2022-12-25T21:57:09.197Z,7.51
2022-12-25T21:59:36.416Z,7.53
2022-12-25T22:02:20.301Z,7.53
2022-12-25T22:04:48.372Z,7.52
2022-12-25T22:07:18.542Z,7.47
2022-12-25T22:09:50.312Z,7.46
2022-12-25T22:12:38.888Z,7.44
2022-12-25T22:15:08.202Z,7.48
2022-12-25T22:18:01.949Z,7.45
2022-12-25T22:20:35.081Z,7.48
2022-12-25T22:23:02.771Z,7.45
2022-12-25T22:25:30.123Z,7.41
2022-12-25T22:27:58.387Z,7.39
2022-12-25T22:30:28.191Z,7.44
2022-12-25T22:32:55.696Z,7.41
2022-12-25T22:35:22.717Z,7.46
2022-12-25T22:37:50.085Z,7.44
2022-12-25T22:40:19.543Z,7.45
2022-12-25T22:42:47.436Z,7.43
2022-12-25T22:45:15.663Z,7.40
2022-12-25T22:47:43.341Z,7.38
2022-12-25T22:50:12.600Z,7.40
2022-12-25T22:52:39.759Z,7.45
2022-12-25T22:55:09.019Z,7.44
2022-12-25T22:57:36.407Z,7.45
2022-12-25T23:00:06.356Z,7.48
2022-12-25T23:02:35.584Z,7.54
2022-12-25T23:05:03.747Z,7.52
2022-12-25T23:07:31.127Z,7.46
2022-12-25T23:09:57.934Z,7.44
2022-12-25T23:15:29.046Z,7.40
2022-12-25T23:18:14.588Z,7.35
2022-12-25T23:21:00.712Z,7.34
2022-12-25T23:23:46.285Z,7.35
2022-12-25T23:26:14.550Z,7.32
2022-12-25T23:29:01.285Z,7.31
2022-12-25T23:31:39.929Z,7.31
2022-12-25T23:34:08.348Z,7.35
2022-12-25T23:36:35.625Z,7.52
2022-12-25T23:39:09.421Z,7.58
2022-12-25T23:41:37.087Z,7.58
2022-12-25T23:44:12.447Z,7.53
2022-12-25T23:46:40.435Z,7.48
2022-12-25T23:49:07.763Z,7.43
2022-12-25T23:51:44.926Z,7.51
2022-12-25T23:54:17.755Z,7.43
2022-12-25T23:56:45.545Z,7.44
2022-12-25T23:59:13.503Z,7.40
